createdAt,value
2023-03-10T00:00:37.636Z,99.99
2023-03-10T00:01:37.562Z,99.99
2023-03-10T00:02:37.605Z,99.99
2023-03-10T00:03:37.569Z,99.99
2023-03-10T00:04:37.661Z,99.99
2023-03-10T00:05:37.621Z,99.99
2023-03-10T00:06:37.536Z,99.99
2023-03-10T00:07:37.520Z,99.99
2023-03-10T00:08:37.517Z,99.99
2023-03-10T00:09:37.492Z,99.99
2023-03-10T00:10:37.476Z,99.99
2023-03-10T00:11:37.457Z,99.99
2023-03-10T00:12:37.471Z,99.99
2023-03-10T00:13:37.457Z,99.99
2023-03-10T00:14:37.418Z,99.99
2023-03-10T00:15:37.542Z,99.99
2023-03-10T00:16:37.410Z,99.99
2023-03-10T00:17:37.432Z,99.99
2023-03-10T00:18:37.402Z,99.99
2023-03-10T00:19:37.366Z,99.99
2023-03-10T00:20:37.362Z,99.99
2023-03-10T00:21:37.346Z,99.99
2023-03-10T00:22:37.349Z,99.99
2023-03-10T00:23:37.596Z,99.99
2023-03-10T00:24:37.322Z,99.99
2023-03-10T00:25:37.306Z,99.99
2023-03-10T00:26:37.290Z,99.99
2023-03-10T00:27:37.304Z,99.99
2023-03-10T00:28:37.286Z,99.99
2023-03-10T00:29:37.252Z,99.99
2023-03-10T00:30:37.249Z,99.99
2023-03-10T00:31:37.385Z,99.99
2023-03-10T00:32:37.290Z,99.99
2023-03-10T00:33:37.218Z,99.99
2023-03-10T00:34:37.232Z,99.99
2023-03-10T00:35:37.304Z,99.99
2023-03-10T00:36:37.183Z,99.99
2023-03-10T00:37:37.190Z,99.99
2023-03-10T00:38:37.210Z,99.99
2023-03-10T00:39:37.150Z,99.99
2023-03-10T00:40:37.157Z,99.99
2023-03-10T00:41:37.138Z,99.99
2023-03-10T00:42:37.131Z,99.99
2023-03-10T00:43:37.127Z,99.99
2023-03-10T00:44:37.102Z,99.99
2023-03-10T00:45:37.103Z,99.99
2023-03-10T00:46:37.109Z,99.99
2023-03-10T00:47:37.081Z,99.99
2023-03-10T00:48:37.056Z,99.99
2023-03-10T00:49:37.048Z,99.99
2023-03-10T00:50:37.089Z,99.99
2023-03-10T00:51:37.030Z,99.99
2023-03-10T00:52:37.019Z,99.99
2023-03-10T00:53:36.998Z,99.99
2023-03-10T00:54:37.199Z,99.99
2023-03-10T00:55:36.989Z,99.99
2023-03-10T00:56:36.974Z,99.99
2023-03-10T00:57:36.965Z,99.99
2023-03-10T00:58:36.957Z,99.99
2023-03-10T00:59:49.273Z,99.99
2023-03-10T01:00:36.928Z,99.99
2023-03-10T01:01:36.973Z,99.99
2023-03-10T01:02:36.927Z,99.99
2023-03-10T01:03:36.925Z,99.99
2023-03-10T01:04:36.939Z,99.99
2023-03-10T01:05:36.887Z,99.99
2023-03-10T01:06:36.860Z,99.99
2023-03-10T01:07:36.843Z,99.99
2023-03-10T01:08:36.885Z,99.99
2023-03-10T01:09:36.826Z,99.99
2023-03-10T01:10:36.829Z,99.99
2023-03-10T01:11:36.806Z,99.99
2023-03-10T01:12:36.788Z,99.99
2023-03-10T01:13:37.890Z,99.99
2023-03-10T01:14:36.776Z,99.99
2023-03-10T01:15:36.759Z,99.99
2023-03-10T01:16:36.807Z,99.99
2023-03-10T01:17:36.746Z,99.99
2023-03-10T01:18:36.768Z,99.99
2023-03-10T01:19:36.749Z,99.99
2023-03-10T01:20:36.723Z,99.99
2023-03-10T01:21:36.703Z,99.99
2023-03-10T01:22:36.698Z,99.99
2023-03-10T01:23:36.716Z,99.99
2023-03-10T01:24:36.661Z,99.99
2023-03-10T01:25:36.645Z,99.99
2023-03-10T01:26:36.708Z,99.99
2023-03-10T01:27:36.624Z,99.99
2023-03-10T01:28:36.743Z,99.99
2023-03-10T01:29:36.606Z,99.99
2023-03-10T01:30:36.596Z,99.99
2023-03-10T01:31:36.650Z,99.99
2023-03-10T01:32:36.642Z,99.99
2023-03-10T01:33:36.576Z,99.99
2023-03-10T01:34:36.578Z,99.99
2023-03-10T01:35:36.566Z,99.99
2023-03-10T01:36:36.535Z,99.99
2023-03-10T01:37:36.522Z,99.99
2023-03-10T01:38:36.525Z,99.99
2023-03-10T01:39:36.495Z,99.99
2023-03-10T01:40:36.479Z,99.99
2023-03-10T01:41:36.523Z,99.99
2023-03-10T01:42:36.464Z,99.99
2023-03-10T01:43:36.468Z,99.99
2023-03-10T01:44:36.442Z,99.99
2023-03-10T01:45:36.439Z,99.99
2023-03-10T01:46:36.492Z,99.99
2023-03-10T01:47:36.402Z,99.99
2023-03-10T01:48:36.457Z,99.99
2023-03-10T01:49:36.399Z,99.99
2023-03-10T01:50:36.371Z,99.99
2023-03-10T01:51:36.380Z,99.99
2023-03-10T01:52:36.349Z,99.99
2023-03-10T01:53:36.359Z,99.99
2023-03-10T01:54:36.357Z,99.99
2023-03-10T01:55:36.330Z,99.99
2023-03-10T01:56:36.317Z,99.99
2023-03-10T01:57:42.855Z,99.99
2023-03-10T01:58:36.296Z,99.99
2023-03-10T01:59:36.276Z,99.99
2023-03-10T02:00:36.296Z,99.99
2023-03-10T02:01:36.276Z,99.99
2023-03-10T02:02:36.246Z,99.99
2023-03-10T02:03:36.248Z,99.99
2023-03-10T02:04:36.221Z,99.99
2023-03-10T02:05:36.202Z,99.99
2023-03-10T02:06:36.216Z,99.99
2023-03-10T02:07:36.194Z,99.99
2023-03-10T02:08:36.197Z,99.99
2023-03-10T02:09:36.165Z,99.99
2023-03-10T02:10:36.172Z,99.99
2023-03-10T02:11:36.170Z,99.99
2023-03-10T02:12:36.153Z,99.99
2023-03-10T02:13:36.146Z,99.99
2023-03-10T02:14:36.120Z,99.99
2023-03-10T02:15:36.104Z,99.99
2023-03-10T02:16:36.226Z,99.99
2023-03-10T02:17:36.147Z,99.99
2023-03-10T02:18:36.108Z,99.99
2023-03-10T02:19:36.065Z,99.99
2023-03-10T02:20:36.047Z,99.99
2023-03-10T02:21:36.036Z,99.99
2023-03-10T02:22:36.019Z,99.99
2023-03-10T02:23:36.055Z,99.99
2023-03-10T02:24:36.008Z,99.99
2023-03-10T02:25:35.996Z,99.99
2023-03-10T02:26:35.989Z,99.99
2023-03-10T02:27:35.987Z,99.99
2023-03-10T02:28:35.971Z,99.99
2023-03-10T02:29:42.647Z,99.99
2023-03-10T02:30:35.945Z,99.99
2023-03-10T02:31:36.063Z,99.99
2023-03-10T02:32:36.111Z,99.99
2023-03-10T02:33:35.942Z,99.99
2023-03-10T02:34:35.897Z,99.99
2023-03-10T02:35:35.948Z,99.99
2023-03-10T02:36:35.864Z,99.99
2023-03-10T02:37:35.856Z,99.99
2023-03-10T02:38:35.866Z,99.99
2023-03-10T02:39:35.836Z,99.99
2023-03-10T02:40:35.831Z,99.99
2023-03-10T02:41:35.830Z,99.99
2023-03-10T02:42:35.800Z,99.99
2023-03-10T02:43:35.826Z,99.99
2023-03-10T02:44:35.782Z,99.99
2023-03-10T02:45:35.932Z,99.99
2023-03-10T02:46:35.784Z,99.99
2023-03-10T02:47:35.773Z,99.99
2023-03-10T02:48:35.758Z,99.99
2023-03-10T02:49:35.735Z,99.99
2023-03-10T02:50:35.714Z,99.99
2023-03-10T02:51:35.727Z,99.99
2023-03-10T02:52:35.694Z,99.99
2023-03-10T02:53:35.708Z,99.99
2023-03-10T02:54:35.679Z,99.99
2023-03-10T02:55:35.671Z,99.99
2023-03-10T02:56:35.653Z,99.99
2023-03-10T02:57:35.643Z,99.99
2023-03-10T02:58:35.638Z,99.99
2023-03-10T02:59:35.613Z,99.99
2023-03-10T03:00:35.606Z,99.99
2023-03-10T03:01:35.699Z,99.99
2023-03-10T03:02:35.581Z,99.99
2023-03-10T03:03:35.646Z,99.99
2023-03-10T03:04:35.569Z,99.99
2023-03-10T03:05:35.566Z,99.99
2023-03-10T03:06:35.553Z,99.99
2023-03-10T03:07:35.539Z,99.99
2023-03-10T03:08:35.536Z,99.99
2023-03-10T03:09:35.530Z,99.99
2023-03-10T03:10:35.519Z,99.99
2023-03-10T03:11:35.515Z,99.99
2023-03-10T03:12:35.496Z,99.99
2023-03-10T03:13:35.620Z,99.99
2023-03-10T03:14:35.466Z,99.99
2023-03-10T03:15:35.541Z,99.99
2023-03-10T03:16:35.464Z,99.99
2023-03-10T03:17:35.422Z,99.99
2023-03-10T03:18:35.420Z,99.99
2023-03-10T03:19:35.403Z,99.99
2023-03-10T03:20:35.383Z,99.99
2023-03-10T03:21:35.370Z,99.99
2023-03-10T03:22:35.361Z,99.99
2023-03-10T03:23:35.416Z,99.99
2023-03-10T03:24:35.344Z,99.99
2023-03-10T03:25:35.336Z,99.99
2023-03-10T03:26:35.320Z,99.99
2023-03-10T03:27:35.310Z,99.99
2023-03-10T03:28:35.325Z,99.99
2023-03-10T03:29:35.298Z,99.99
2023-03-10T03:30:35.282Z,99.99
2023-03-10T03:31:35.320Z,99.99
2023-03-10T03:32:35.361Z,99.99
2023-03-10T03:33:35.265Z,99.99
2023-03-10T03:34:35.224Z,99.99
2023-03-10T03:35:35.237Z,99.99
2023-03-10T03:36:35.223Z,99.99
2023-03-10T03:37:35.192Z,99.99
2023-03-10T03:38:35.203Z,99.99
2023-03-10T03:39:35.303Z,99.99
2023-03-10T03:40:35.195Z,99.99
2023-03-10T03:41:35.177Z,99.99
2023-03-10T03:42:35.137Z,99.99
2023-03-10T03:43:35.154Z,99.99
2023-03-10T03:44:35.114Z,99.99
2023-03-10T03:45:35.116Z,99.99
2023-03-10T03:46:35.119Z,99.99
2023-03-10T03:47:35.090Z,99.99
2023-03-10T03:48:35.074Z,99.99
2023-03-10T03:49:35.080Z,99.99
2023-03-10T03:50:35.059Z,99.99
2023-03-10T03:51:35.048Z,99.99
2023-03-10T03:52:35.043Z,99.99
2023-03-10T03:53:35.020Z,99.99
2023-03-10T03:54:35.028Z,99.99
2023-03-10T03:55:34.999Z,99.99
2023-03-10T03:56:34.984Z,99.99
2023-03-10T03:57:34.985Z,99.99
2023-03-10T03:58:34.970Z,99.99
2023-03-10T03:59:34.978Z,99.99
2023-03-10T04:00:34.954Z,99.99
2023-03-10T04:01:34.936Z,99.99
2023-03-10T04:02:35.021Z,99.99
2023-03-10T04:03:34.928Z,99.99
2023-03-10T04:04:34.923Z,99.99
2023-03-10T04:05:34.896Z,99.99
2023-03-10T04:06:34.873Z,99.99
2023-03-10T04:07:34.874Z,99.99
2023-03-10T04:08:34.854Z,99.99
2023-03-10T04:09:34.864Z,99.99
2023-03-10T04:10:34.841Z,99.99
2023-03-10T04:11:34.838Z,99.99
2023-03-10T04:12:34.813Z,99.99
2023-03-10T04:13:34.811Z,99.99
2023-03-10T04:14:34.812Z,99.99
2023-03-10T04:15:34.918Z,99.99
2023-03-10T04:16:34.786Z,99.99
2023-03-10T04:17:34.783Z,99.99
2023-03-10T04:18:34.754Z,99.99
2023-03-10T04:19:34.764Z,99.99
2023-03-10T04:20:34.728Z,99.99
2023-03-10T04:21:34.721Z,99.99
2023-03-10T04:22:34.712Z,99.99
2023-03-10T04:23:34.692Z,99.99
2023-03-10T04:24:34.699Z,99.99
2023-03-10T04:25:34.676Z,99.99
2023-03-10T04:26:34.657Z,99.99
2023-03-10T04:27:34.684Z,99.99
2023-03-10T04:28:34.650Z,99.99
2023-03-10T04:29:34.642Z,99.99
2023-03-10T04:30:34.621Z,99.99
2023-03-10T04:31:34.664Z,99.99
2023-03-10T04:32:34.649Z,99.99
2023-03-10T04:33:34.594Z,99.99
2023-03-10T04:34:34.596Z,99.99
2023-03-10T04:35:34.604Z,99.99
2023-03-10T04:36:34.561Z,99.99
2023-03-10T04:37:34.550Z,99.99
2023-03-10T04:38:34.534Z,99.99
2023-03-10T04:39:34.538Z,99.99
2023-03-10T04:40:34.521Z,99.99
2023-03-10T04:41:34.492Z,99.99
2023-03-10T04:42:34.492Z,99.99
2023-03-10T04:43:34.481Z,99.99
2023-03-10T04:44:34.494Z,99.99
2023-03-10T04:45:34.474Z,99.99
2023-03-10T04:46:34.505Z,99.99
2023-03-10T04:47:34.438Z,99.99
2023-03-10T04:48:34.422Z,99.99
2023-03-10T04:49:34.438Z,99.99
2023-03-10T04:50:34.394Z,99.99
2023-03-10T04:51:34.392Z,99.99
2023-03-10T04:52:34.400Z,99.99
2023-03-10T04:53:34.378Z,99.99
2023-03-10T04:54:34.384Z,99.99
2023-03-10T04:55:34.346Z,99.99
2023-03-10T04:56:34.332Z,99.99
2023-03-10T04:57:34.328Z,99.99
2023-03-10T04:58:34.315Z,99.99
2023-03-10T04:59:34.317Z,99.99
2023-03-10T05:00:34.444Z,99.99
2023-03-10T05:01:34.362Z,99.99
2023-03-10T05:02:34.303Z,99.99
2023-03-10T05:03:34.255Z,99.99
2023-03-10T05:04:34.285Z,99.99
2023-03-10T05:05:36.568Z,99.99
2023-03-10T05:06:34.239Z,99.99
2023-03-10T05:07:34.218Z,99.99
2023-03-10T05:08:34.200Z,99.99
2023-03-10T05:09:34.205Z,99.99
2023-03-10T05:10:34.192Z,99.99
2023-03-10T05:11:34.170Z,99.99
2023-03-10T05:12:34.166Z,99.99
2023-03-10T05:13:34.147Z,99.99
2023-03-10T05:14:34.148Z,99.99
2023-03-10T05:15:34.124Z,99.99
2023-03-10T05:16:34.172Z,99.99
2023-03-10T05:17:34.111Z,99.99
2023-03-10T05:18:34.093Z,99.99
2023-03-10T05:19:34.098Z,99.99
2023-03-10T05:20:34.061Z,99.99
2023-03-10T05:21:34.091Z,99.99
2023-03-10T05:22:34.044Z,99.99
2023-03-10T05:23:34.038Z,99.99
2023-03-10T05:24:34.032Z,99.99
2023-03-10T05:25:34.015Z,99.99
2023-03-10T05:26:35.001Z,99.99
2023-03-10T05:27:33.995Z,99.99
2023-03-10T05:28:33.974Z,99.99
2023-03-10T05:29:35.284Z,99.99
2023-03-10T05:30:33.961Z,99.99
2023-03-10T05:31:33.990Z,99.99
2023-03-10T05:32:33.964Z,99.99
2023-03-10T05:33:33.929Z,99.99
2023-03-10T05:34:33.936Z,99.99
2023-03-10T05:35:33.984Z,99.99
2023-03-10T05:36:33.903Z,99.99
2023-03-10T05:37:33.869Z,99.99
2023-03-10T05:38:33.864Z,99.99
2023-03-10T05:39:33.880Z,99.99
2023-03-10T05:40:33.858Z,99.99
2023-03-10T05:41:33.830Z,99.99
2023-03-10T05:42:33.821Z,99.99
2023-03-10T05:43:33.817Z,99.99
2023-03-10T05:44:33.822Z,99.99
2023-03-10T05:45:33.798Z,99.99
2023-03-10T05:46:33.814Z,99.99
2023-03-10T05:47:33.772Z,99.99
2023-03-10T05:48:33.761Z,99.99
2023-03-10T05:49:33.774Z,99.99
2023-03-10T05:50:33.743Z,99.99
2023-03-10T05:51:33.731Z,99.99
2023-03-10T05:52:33.718Z,99.99
2023-03-10T05:53:33.728Z,99.99
2023-03-10T05:54:33.714Z,99.99
2023-03-10T05:55:33.689Z,99.99
2023-03-10T05:56:33.678Z,99.99
2023-03-10T05:57:33.663Z,99.99
2023-03-10T05:58:33.657Z,99.99
2023-03-10T05:59:33.656Z,99.99
2023-03-10T06:00:33.636Z,99.99
2023-03-10T06:01:33.631Z,99.99
2023-03-10T06:02:33.601Z,99.99
2023-03-10T06:03:33.765Z,99.99
2023-03-10T06:04:33.604Z,99.99
2023-03-10T06:05:33.568Z,99.99
2023-03-10T06:06:33.558Z,99.99
2023-03-10T06:07:33.572Z,99.99
2023-03-10T06:08:33.543Z,99.99
2023-03-10T06:09:33.548Z,99.99
2023-03-10T06:10:33.521Z,99.99
2023-03-10T06:11:33.511Z,99.99
2023-03-10T06:12:33.507Z,99.99
2023-03-10T06:13:33.493Z,99.99
2023-03-10T06:14:33.504Z,99.99
2023-03-10T06:15:33.466Z,99.99
2023-03-10T06:16:33.556Z,99.99
2023-03-10T06:17:33.447Z,99.99
2023-03-10T06:18:33.450Z,99.99
2023-03-10T06:19:33.448Z,99.99
2023-03-10T06:20:33.412Z,99.99
2023-03-10T06:21:33.404Z,99.99
2023-03-10T06:22:33.399Z,99.99
2023-03-10T06:23:33.394Z,99.99
2023-03-10T06:24:33.394Z,99.99
2023-03-10T06:25:33.362Z,99.99
2023-03-10T06:26:33.345Z,99.99
2023-03-10T06:27:33.356Z,99.99
2023-03-10T06:28:33.403Z,99.99
2023-03-10T06:29:33.324Z,99.99
2023-03-10T06:30:33.308Z,99.99
2023-03-10T06:31:33.352Z,99.99
2023-03-10T06:32:33.302Z,99.99
2023-03-10T06:33:33.288Z,99.99
2023-03-10T06:34:33.280Z,99.99
2023-03-10T06:35:33.295Z,99.99
2023-03-10T06:36:33.238Z,99.99
2023-03-10T06:37:33.222Z,99.99
2023-03-10T06:38:33.218Z,99.99
2023-03-10T06:39:33.298Z,99.99
2023-03-10T06:40:33.207Z,99.99
2023-03-10T06:41:33.183Z,99.99
2023-03-10T06:42:33.206Z,99.99
2023-03-10T06:43:33.172Z,99.99
2023-03-10T06:44:33.164Z,99.99
2023-03-10T06:45:33.151Z,99.99
2023-03-10T06:46:33.142Z,99.99
2023-03-10T06:47:33.122Z,99.99
2023-03-10T06:48:33.106Z,99.99
2023-03-10T06:49:33.130Z,99.99
2023-03-10T06:50:33.094Z,99.99
2023-03-10T06:51:33.077Z,99.99
2023-03-10T06:52:33.059Z,99.99
2023-03-10T06:53:33.053Z,99.99
2023-03-10T06:54:33.040Z,99.99
2023-03-10T06:55:33.063Z,99.99
2023-03-10T06:56:33.022Z,99.99
2023-03-10T06:57:33.015Z,99.99
2023-03-10T06:58:32.994Z,99.99
2023-03-10T06:59:32.982Z,99.99
2023-03-10T07:00:32.990Z,99.99
2023-03-10T07:01:33.048Z,99.99
2023-03-10T07:02:32.967Z,99.99
2023-03-10T07:03:32.970Z,99.99
2023-03-10T07:04:32.976Z,99.99
2023-03-10T07:05:32.942Z,99.99
2023-03-10T07:06:32.930Z,99.99
2023-03-10T07:07:32.925Z,99.99
2023-03-10T07:08:32.912Z,99.99
2023-03-10T07:09:32.868Z,99.99
2023-03-10T07:10:32.881Z,99.99
2023-03-10T07:11:32.860Z,99.99
2023-03-10T07:12:32.846Z,99.99
2023-03-10T07:13:32.831Z,99.99
2023-03-10T07:14:32.821Z,99.99
2023-03-10T07:15:32.902Z,99.99
2023-03-10T07:16:32.817Z,99.99
2023-03-10T07:17:32.791Z,99.99
2023-03-10T07:18:32.778Z,99.99
2023-03-10T07:19:32.756Z,99.99
2023-03-10T07:20:32.780Z,99.99
2023-03-10T07:21:32.741Z,99.99
2023-03-10T07:22:32.728Z,99.99
2023-03-10T07:23:32.724Z,99.99
2023-03-10T07:24:32.707Z,99.99
2023-03-10T07:25:32.710Z,99.99
2023-03-10T07:26:32.680Z,99.99
2023-03-10T07:27:32.687Z,99.99
2023-03-10T07:28:32.656Z,99.99
2023-03-10T07:29:32.655Z,99.99
2023-03-10T07:30:32.700Z,99.99
2023-03-10T07:31:32.630Z,99.99
2023-03-10T07:32:32.690Z,99.99
2023-03-10T07:33:32.621Z,99.99
2023-03-10T07:34:32.610Z,99.99
2023-03-10T07:35:35.418Z,99.99
2023-03-10T07:36:32.587Z,99.99
2023-03-10T07:37:32.564Z,99.99
2023-03-10T07:38:32.548Z,99.99
2023-03-10T07:39:32.557Z,99.99
2023-03-10T07:40:32.554Z,99.99
2023-03-10T07:41:32.532Z,99.99
2023-03-10T07:42:32.511Z,99.99
2023-03-10T07:43:32.510Z,99.99
2023-03-10T07:44:32.491Z,99.99
2023-03-10T07:45:32.512Z,99.99
2023-03-10T07:46:32.513Z,99.99
2023-03-10T07:47:32.457Z,99.99
2023-03-10T07:48:32.441Z,99.99
2023-03-10T07:49:32.438Z,99.99
2023-03-10T07:50:32.430Z,99.99
2023-03-10T07:51:32.438Z,99.99
2023-03-10T07:52:32.406Z,99.99
2023-03-10T07:53:32.392Z,99.99
2023-03-10T07:54:32.400Z,99.99
2023-03-10T07:55:32.394Z,99.99
2023-03-10T07:56:32.356Z,99.99
2023-03-10T07:57:40.199Z,99.99
2023-03-10T07:58:32.331Z,99.99
2023-03-10T07:59:32.324Z,99.99
2023-03-10T08:00:32.325Z,99.99
2023-03-10T08:01:32.295Z,99.99
2023-03-10T08:02:32.288Z,99.99
2023-03-10T08:03:32.314Z,99.99
2023-03-10T08:04:32.472Z,99.99
2023-03-10T08:05:32.276Z,99.99
2023-03-10T08:06:32.241Z,99.99
2023-03-10T08:07:32.236Z,99.99
2023-03-10T08:08:32.234Z,99.99
2023-03-10T08:09:32.214Z,99.99
2023-03-10T08:10:32.221Z,99.99
2023-03-10T08:11:32.184Z,99.99
2023-03-10T08:12:32.180Z,99.99
2023-03-10T08:13:32.237Z,99.99
2023-03-10T08:14:32.170Z,99.99
2023-03-10T08:15:32.229Z,99.99
2023-03-10T08:16:32.253Z,99.99
2023-03-10T08:17:32.129Z,99.99
2023-03-10T08:18:32.122Z,99.99
2023-03-10T08:19:32.093Z,99.99
2023-03-10T08:20:32.123Z,99.99
2023-03-10T08:21:32.074Z,99.99
2023-03-10T08:22:32.068Z,99.99
2023-03-10T08:23:32.059Z,99.99
2023-03-10T08:24:33.840Z,99.99
2023-03-10T08:25:32.058Z,99.99
2023-03-10T08:26:35.408Z,99.99
2023-03-10T08:27:35.477Z,99.99
2023-03-10T08:28:31.997Z,99.99
2023-03-10T08:29:31.986Z,99.99
2023-03-10T08:30:32.005Z,99.99
2023-03-10T08:31:32.010Z,99.88
2023-03-10T08:32:34.171Z,99.77
2023-03-10T08:33:31.967Z,99.77
2023-03-10T08:34:31.979Z,99.67
2023-03-10T08:35:31.956Z,99.67
2023-03-10T08:36:31.921Z,99.77
2023-03-10T08:37:31.922Z,99.67
2023-03-10T08:38:31.911Z,99.67
2023-03-10T08:39:31.877Z,99.67
2023-03-10T08:40:31.894Z,99.57
2023-03-10T08:41:31.857Z,99.57
2023-03-10T08:42:31.860Z,99.57
2023-03-10T08:43:31.835Z,99.57
2023-03-10T08:44:31.822Z,99.46
2023-03-10T08:45:31.820Z,99.57
2023-03-10T08:46:31.908Z,99.52
2023-03-10T08:47:32.444Z,99.52
2023-03-10T08:48:31.775Z,99.52
2023-03-10T08:49:31.765Z,99.42
2023-03-10T08:50:31.776Z,99.46
2023-03-10T08:51:31.791Z,99.36
2023-03-10T08:52:31.821Z,99.46
2023-03-10T08:53:31.723Z,99.46
2023-03-10T08:54:32.716Z,99.36
2023-03-10T08:55:31.740Z,99.46
2023-03-10T08:56:31.743Z,99.46
2023-03-10T08:57:31.695Z,99.46
2023-03-10T08:58:31.688Z,99.46
2023-03-10T08:59:31.669Z,99.46
2023-03-10T09:00:31.688Z,99.26
2023-03-10T09:01:31.712Z,99.46
2023-03-10T09:02:31.638Z,99.57
2023-03-10T09:03:32.135Z,99.67
2023-03-10T09:04:31.624Z,99.46
2023-03-10T09:05:31.624Z,99.67
2023-03-10T09:06:31.602Z,99.57
2023-03-10T09:07:31.617Z,99.67
2023-03-10T09:08:31.579Z,99.77
2023-03-10T09:09:31.569Z,99.67
2023-03-10T09:10:31.554Z,99.67
2023-03-10T09:11:31.589Z,99.67
2023-03-10T09:12:36.060Z,99.77
2023-03-10T09:13:31.553Z,99.67
2023-03-10T09:14:31.494Z,99.57
2023-03-10T09:15:31.579Z,99.57
2023-03-10T09:16:31.547Z,99.41
2023-03-10T09:17:31.467Z,99.51
2023-03-10T09:18:31.568Z,99.62
2023-03-10T09:19:31.452Z,99.67
2023-03-10T09:20:31.477Z,99.77
2023-03-10T09:21:33.611Z,99.67
2023-03-10T09:22:31.411Z,99.77
2023-03-10T09:23:31.401Z,99.57
2023-03-10T09:24:31.393Z,99.46
2023-03-10T09:25:31.389Z,99.36
2023-03-10T09:26:31.393Z,99.41
2023-03-10T09:27:31.357Z,99.46
2023-03-10T09:28:31.346Z,99.57
2023-03-10T09:29:42.643Z,99.67
2023-03-10T09:30:31.356Z,99.67
2023-03-10T09:31:31.368Z,99.67
2023-03-10T09:32:31.379Z,99.67
2023-03-10T09:33:31.296Z,99.67
2023-03-10T09:34:31.285Z,99.67
2023-03-10T09:35:31.343Z,99.57
2023-03-10T09:36:31.303Z,99.36
2023-03-10T09:37:31.243Z,99.26
2023-03-10T09:38:31.244Z,99.26
2023-03-10T09:39:32.731Z,99.15
2023-03-10T09:40:31.225Z,99.15
2023-03-10T09:41:33.856Z,99.15
2023-03-10T09:42:37.919Z,99.15
2023-03-10T09:43:31.183Z,99.15
2023-03-10T09:44:31.192Z,99.05
2023-03-10T09:45:31.243Z,99.05
2023-03-10T09:46:31.145Z,99.01
2023-03-10T09:47:31.141Z,98.90
2023-03-10T09:48:31.126Z,98.90
2023-03-10T09:49:31.133Z,98.80
2023-03-10T09:50:31.112Z,98.80
2023-03-10T09:51:31.085Z,98.69
2023-03-10T09:52:31.138Z,98.90
2023-03-10T09:53:31.064Z,98.80
2023-03-10T09:54:31.058Z,99.01
2023-03-10T09:55:31.056Z,98.69
2023-03-10T09:56:31.064Z,98.90
2023-03-10T09:57:31.036Z,98.90
2023-03-10T09:58:31.022Z,98.90
2023-03-10T09:59:31.000Z,98.90
2023-03-10T10:00:31.023Z,98.90
2023-03-10T10:01:30.992Z,98.69
2023-03-10T10:02:30.982Z,98.59
2023-03-10T10:03:33.340Z,98.59
2023-03-10T10:04:31.011Z,98.59
2023-03-10T10:05:30.965Z,98.38
2023-03-10T10:06:30.962Z,98.59
2023-03-10T10:07:30.931Z,98.48
2023-03-10T10:08:30.916Z,98.59
2023-03-10T10:09:30.913Z,98.59
2023-03-10T10:10:30.902Z,98.59
2023-03-10T10:11:30.861Z,98.48
2023-03-10T10:12:30.876Z,98.48
2023-03-10T10:13:30.874Z,98.17
2023-03-10T10:14:31.648Z,98.27
2023-03-10T10:15:31.640Z,98.27
2023-03-10T10:16:34.680Z,98.23
2023-03-10T10:17:31.000Z,98.13
2023-03-10T10:18:30.887Z,98.13
2023-03-10T10:19:30.770Z,97.92
2023-03-10T10:20:30.773Z,97.81
2023-03-10T10:21:41.724Z,97.71
2023-03-10T10:22:30.757Z,97.61
2023-03-10T10:23:30.735Z,97.71
2023-03-10T10:24:30.725Z,97.30
2023-03-10T10:25:30.739Z,97.25
2023-03-10T10:26:30.752Z,97.45
2023-03-10T10:27:30.693Z,97.56
2023-03-10T10:28:30.684Z,97.35
2023-03-10T10:29:30.667Z,97.04
2023-03-10T10:30:30.744Z,97.04
2023-03-10T10:31:30.782Z,97.04
2023-03-10T10:32:30.665Z,97.00
2023-03-10T10:33:30.624Z,97.00
2023-03-10T10:34:30.612Z,96.89
2023-03-10T10:35:30.619Z,96.89
2023-03-10T10:36:30.596Z,96.79
2023-03-10T10:37:30.589Z,96.75
2023-03-10T10:38:30.564Z,96.64
2023-03-10T10:39:30.568Z,96.23
2023-03-10T10:40:30.612Z,96.02
2023-03-10T10:41:30.551Z,96.02
2023-03-10T10:42:30.530Z,95.81
2023-03-10T10:43:30.516Z,96.02
2023-03-10T10:44:30.525Z,95.92
2023-03-10T10:45:30.532Z,95.50
2023-03-10T10:46:30.638Z,95.44
2023-03-10T10:47:30.474Z,95.54
2023-03-10T10:48:30.471Z,95.86
2023-03-10T10:49:30.451Z,95.86
2023-03-10T10:50:30.460Z,95.86
2023-03-10T10:51:30.450Z,95.86
2023-03-10T10:52:30.419Z,95.96
2023-03-10T10:53:30.404Z,96.17
2023-03-10T10:54:30.402Z,96.12
2023-03-10T10:55:30.436Z,96.02
2023-03-10T10:56:30.383Z,96.02
2023-03-10T10:57:30.367Z,96.12
2023-03-10T10:58:30.355Z,96.23
2023-03-10T10:59:30.344Z,95.92
2023-03-10T11:00:30.374Z,95.92
2023-03-10T11:01:30.369Z,95.81
2023-03-10T11:02:30.352Z,95.61
2023-03-10T11:03:32.887Z,95.50
2023-03-10T11:04:30.283Z,95.40
2023-03-10T11:05:30.308Z,95.65
2023-03-10T11:06:30.270Z,95.75
2023-03-10T11:07:30.253Z,95.75
2023-03-10T11:08:30.249Z,96.06
2023-03-10T11:09:30.277Z,96.27
2023-03-10T11:10:30.236Z,96.48
2023-03-10T11:11:30.220Z,96.58
2023-03-10T11:12:30.216Z,96.48
2023-03-10T11:13:30.195Z,96.54
2023-03-10T11:14:30.227Z,96.37
2023-03-10T11:15:30.226Z,96.17
2023-03-10T11:16:30.179Z,96.37
2023-03-10T11:17:30.142Z,96.27
2023-03-10T11:18:30.135Z,96.17
2023-03-10T11:19:30.151Z,96.52
2023-03-10T11:20:30.132Z,96.83
2023-03-10T11:21:30.135Z,96.83
2023-03-10T11:22:30.094Z,96.83
2023-03-10T11:23:30.085Z,96.73
2023-03-10T11:24:30.069Z,96.94
2023-03-10T11:25:30.063Z,96.94
2023-03-10T11:26:30.054Z,97.04
2023-03-10T11:27:30.025Z,96.94
2023-03-10T11:28:30.016Z,97.04
2023-03-10T11:29:30.070Z,97.35
2023-03-10T11:30:30.012Z,97.35
2023-03-10T11:31:30.099Z,97.25
2023-03-10T11:32:30.046Z,97.45
2023-03-10T11:33:29.965Z,97.50
2023-03-10T11:34:29.959Z,97.61
2023-03-10T11:35:30.014Z,97.92
2023-03-10T11:36:29.962Z,97.92
2023-03-10T11:37:29.952Z,98.02
2023-03-10T11:38:29.914Z,98.02
2023-03-10T11:39:29.900Z,98.02
2023-03-10T11:40:29.887Z,98.02
2023-03-10T11:41:29.894Z,97.92
2023-03-10T11:42:29.867Z,97.92
2023-03-10T11:43:29.852Z,97.71
2023-03-10T11:44:29.852Z,97.61
2023-03-10T11:45:29.865Z,97.81
2023-03-10T11:46:29.950Z,97.81
2023-03-10T11:47:29.824Z,97.77
2023-03-10T11:48:29.798Z,97.77
2023-03-10T11:49:29.794Z,97.72
2023-03-10T11:50:29.788Z,97.62
2023-03-10T11:51:29.788Z,97.41
2023-03-10T11:52:29.762Z,97.10
2023-03-10T11:53:29.752Z,97.06
2023-03-10T11:54:29.832Z,96.75
2023-03-10T11:55:29.723Z,96.75
2023-03-10T11:56:29.730Z,96.44
2023-03-10T11:57:29.721Z,96.37
2023-03-10T11:58:29.702Z,96.37
2023-03-10T11:59:29.678Z,96.33
2023-03-10T12:00:29.706Z,96.33
2023-03-10T12:01:29.686Z,96.12
2023-03-10T12:02:29.656Z,96.02
2023-03-10T12:03:29.700Z,96.02
2023-03-10T12:04:29.620Z,95.71
2023-03-10T12:05:29.680Z,95.71
2023-03-10T12:06:29.624Z,95.81
2023-03-10T12:07:29.591Z,95.92
2023-03-10T12:08:29.606Z,95.92
2023-03-10T12:09:29.571Z,96.02
2023-03-10T12:10:29.566Z,95.92
2023-03-10T12:11:29.560Z,95.71
2023-03-10T12:12:29.531Z,95.81
2023-03-10T12:13:29.530Z,95.81
2023-03-10T12:14:29.529Z,95.81
2023-03-10T12:15:29.507Z,95.92
2023-03-10T12:16:29.605Z,95.92
2023-03-10T12:17:29.505Z,95.87
2023-03-10T12:18:29.493Z,95.87
2023-03-10T12:19:29.493Z,95.36
2023-03-10T12:20:29.479Z,95.15
2023-03-10T12:21:29.496Z,95.09
2023-03-10T12:22:29.416Z,95.19
2023-03-10T12:23:29.407Z,95.56
2023-03-10T12:24:29.389Z,95.36
2023-03-10T12:25:29.388Z,95.04
2023-03-10T12:26:29.390Z,95.04
2023-03-10T12:27:29.371Z,95.04
2023-03-10T12:28:29.387Z,95.04
2023-03-10T12:29:29.358Z,94.94
2023-03-10T12:30:29.352Z,94.84
2023-03-10T12:31:29.397Z,94.73
2023-03-10T12:32:29.401Z,94.73
2023-03-10T12:33:29.299Z,94.73
2023-03-10T12:34:29.318Z,94.84
2023-03-10T12:35:29.277Z,94.94
2023-03-10T12:36:29.372Z,95.04
2023-03-10T12:37:29.265Z,95.19
2023-03-10T12:38:29.241Z,95.19
2023-03-10T12:39:29.265Z,95.56
2023-03-10T12:40:29.217Z,95.56
2023-03-10T12:41:29.235Z,95.36
2023-03-10T12:42:29.218Z,95.25
2023-03-10T12:43:29.200Z,95.25
2023-03-10T12:44:29.202Z,95.46
2023-03-10T12:45:29.178Z,95.56
2023-03-10T12:46:29.272Z,95.56
2023-03-10T12:47:29.158Z,95.56
2023-03-10T12:48:29.130Z,95.56
2023-03-10T12:49:29.133Z,95.31
2023-03-10T12:50:29.124Z,95.15
2023-03-10T12:51:29.116Z,95.15
2023-03-10T12:52:29.119Z,95.04